KBWW

Bowman Regional Airport

Bowman, North Dakota, USA
METAR KBWW 241435Z AUTO 34005KT 10SM SCT090 17/17 A2984 RMK AO2
Observed Flight Rules
Jun-24 @ 14:35 UTC (24 minutes ago) Visual Flight Rules
Wind Visibility Clouds
340° at 5 knots 10 miles
  • Scattered at 9,000' AGL
Temperatures Readings
Current 17°C / 63°F
Dewpoint 17°C / 63°F
Humidity 100%
Altimeter 29.84" Hg
Pressure 1010 hPa
Elevation 910
METAR KBWW 241435Z AUTO 34005KT 10SM SCT090 17/17 A2984 RMK AO2
Observed Flight Rules
Jun-24 @ 14:35 UTC
(24 minutes ago)
VFR
Wind Visibility
340° at 5 knots 10 miles
Clouds
  • Scattered at 9,000' AGL
Temperature Dewpoint
17°C / 63°F 17°C / 63°F
Humidity Altimeter Pressure
100% 29.84" Hg 1010 hPa